N960 KPVD-KSYR
Flight info
| Callsign | N960 |
|---|---|
| Flight time | 0h 51m |
| Altitude | 38000 |
| Route | PUTT ALB T608 SYR |
| Aircraft | C25C/M-BGS/L |
Departure
| Time | 2026-04-27 22:23 |
|---|---|
| Airport | Rhode Island T. F. Green International Airport (KPVD) |
Arrival
| Time | 2026-04-27 23:15 |
|---|---|
| Airport | Syracuse Hancock International Airport (KSYR) |
| Time | Latitude | Longitude | Altitude | Speed | Heading |
|---|---|---|---|---|---|
| 2026-04-27 21:59 | 41.73194 | -71.42605 | 53 ft | 0 kts | 267° |
| 2026-04-27 22:15 | 41.73185 | -71.42659 | 56 ft | 12 kts | 257° |
| 2026-04-27 22:15 | 41.73147 | -71.42753 | 56 ft | 13 kts | 221° |
| 2026-04-27 22:15 | 41.73042 | -71.42844 | 55 ft | 23 kts | 210° |
| 2026-04-27 22:16 | 41.72880 | -71.42979 | 56 ft | 33 kts | 213° |
| 2026-04-27 22:16 | 41.72655 | -71.43171 | 58 ft | 42 kts | 212° |
| 2026-04-27 22:16 | 41.72419 | -71.43368 | 52 ft | 39 kts | 212° |
| 2026-04-27 22:16 | 41.72232 | -71.43526 | 54 ft | 15 kts | 212° |
| 2026-04-27 22:17 | 41.72143 | -71.43600 | 55 ft | 15 kts | 211° |
| 2026-04-27 22:17 | 41.72046 | -71.43660 | 58 ft | 15 kts | 171° |
| 2026-04-27 22:17 | 41.71974 | -71.43556 | 53 ft | 16 kts | 125° |
| 2026-04-27 22:17 | 41.71912 | -71.43427 | 52 ft | 17 kts | 122° |
| 2026-04-27 22:18 | 41.71841 | -71.43314 | 52 ft | 16 kts | 163° |
| 2026-04-27 22:18 | 41.71748 | -71.43362 | 53 ft | 14 kts | 211° |
| 2026-04-27 22:18 | 41.71666 | -71.43431 | 54 ft | 13 kts | 213° |
| 2026-04-27 22:18 | 41.71623 | -71.43467 | 54 ft | 0 kts | 213° |
| 2026-04-27 22:19 | 41.71582 | -71.43503 | 57 ft | 15 kts | 212° |
| 2026-04-27 22:19 | 41.71516 | -71.43559 | 57 ft | 0 kts | 212° |
| 2026-04-27 22:20 | 41.71499 | -71.43572 | 57 ft | 6 kts | 211° |
| 2026-04-27 22:20 | 41.71456 | -71.43589 | 57 ft | 6 kts | 171° |
| 2026-04-27 22:20 | 41.71448 | -71.43585 | 57 ft | 0 kts | 153° |
| 2026-04-27 22:22 | 41.71431 | -71.43565 | 55 ft | 12 kts | 131° |
| 2026-04-27 22:23 | 41.71463 | -71.43430 | 61 ft | 28 kts | 35° |
| 2026-04-27 22:23 | 41.71895 | -71.43069 | 64 ft | 120 kts | 32° |
| 2026-04-27 22:23 | 41.72664 | -71.42454 | 1049 ft | 119 kts | 27° |
| 2026-04-27 22:23 | 41.73540 | -71.42337 | 1687 ft | 141 kts | 353° |
| 2026-04-27 22:24 | 41.74480 | -71.42867 | 2407 ft | 145 kts | 342° |
| 2026-04-27 22:24 | 41.75435 | -71.43270 | 3074 ft | 149 kts | 347° |
| 2026-04-27 22:24 | 41.76388 | -71.43656 | 3749 ft | 136 kts | 349° |
| 2026-04-27 22:24 | 41.77315 | -71.44017 | 4123 ft | 147 kts | 348° |
| 2026-04-27 22:25 | 41.78299 | -71.44620 | 4770 ft | 169 kts | 322° |
| 2026-04-27 22:25 | 41.78935 | -71.46039 | 5960 ft | 184 kts | 295° |
| 2026-04-27 22:25 | 41.79282 | -71.47597 | 7375 ft | 166 kts | 291° |
| 2026-04-27 22:25 | 41.79702 | -71.49073 | 8042 ft | 178 kts | 305° |
| 2026-04-27 22:26 | 41.80338 | -71.50603 | 8895 ft | 191 kts | 304° |
| 2026-04-27 22:26 | 41.81014 | -71.52196 | 9834 ft | 215 kts | 306° |
| 2026-04-27 22:26 | 41.81894 | -71.54002 | 10366 ft | 246 kts | 310° |
| 2026-04-27 22:26 | 41.82941 | -71.56054 | 10619 ft | 282 kts | 305° |
| 2026-04-27 22:27 | 41.83903 | -71.58410 | 11234 ft | 293 kts | 301° |
| 2026-04-27 22:27 | 41.84888 | -71.60843 | 11898 ft | 299 kts | 302° |
| 2026-04-27 22:27 | 41.85830 | -71.63060 | 12494 ft | 303 kts | 303° |
| 2026-04-27 22:27 | 41.86848 | -71.65425 | 13120 ft | 307 kts | 303° |
| 2026-04-27 22:28 | 41.87910 | -71.67921 | 13786 ft | 309 kts | 302° |
| 2026-04-27 22:28 | 41.88969 | -71.70431 | 14406 ft | 309 kts | 302° |
| 2026-04-27 22:28 | 41.90035 | -71.72958 | 14933 ft | 313 kts | 302° |
| 2026-04-27 22:28 | 41.91113 | -71.75504 | 15413 ft | 315 kts | 302° |
| 2026-04-27 22:29 | 41.92200 | -71.78073 | 15915 ft | 317 kts | 303° |
| 2026-04-27 22:29 | 41.93284 | -71.80648 | 16417 ft | 317 kts | 302° |
| 2026-04-27 22:29 | 41.94371 | -71.83219 | 16927 ft | 317 kts | 303° |
| 2026-04-27 22:29 | 41.95462 | -71.85815 | 17413 ft | 326 kts | 303° |
| 2026-04-27 22:30 | 41.96631 | -71.88563 | 17899 ft | 351 kts | 303° |
| 2026-04-27 22:30 | 41.97847 | -71.91469 | 18753 ft | 361 kts | 303° |
| 2026-04-27 22:30 | 41.99073 | -71.94396 | 19556 ft | 368 kts | 303° |
| 2026-04-27 22:30 | 42.00339 | -71.97411 | 20400 ft | 373 kts | 303° |
| 2026-04-27 22:31 | 42.01623 | -72.00472 | 21277 ft | 377 kts | 303° |
| 2026-04-27 22:31 | 42.02914 | -72.03553 | 22173 ft | 379 kts | 303° |
| 2026-04-27 22:31 | 42.04205 | -72.06644 | 23103 ft | 379 kts | 303° |
| 2026-04-27 22:31 | 42.05501 | -72.09738 | 24022 ft | 379 kts | 303° |
| 2026-04-27 22:32 | 42.06774 | -72.12838 | 24838 ft | 379 kts | 301° |
| 2026-04-27 22:32 | 42.07772 | -72.16131 | 25670 ft | 379 kts | 296° |
| 2026-04-27 22:32 | 42.08725 | -72.19414 | 26507 ft | 375 kts | 296° |
| 2026-04-27 22:32 | 42.09669 | -72.22681 | 27290 ft | 374 kts | 296° |
| 2026-04-27 22:33 | 42.10615 | -72.25942 | 27939 ft | 376 kts | 296° |
| 2026-04-27 22:33 | 42.11564 | -72.29226 | 28605 ft | 376 kts | 296° |
| 2026-04-27 22:33 | 42.12510 | -72.32506 | 29279 ft | 375 kts | 296° |
| 2026-04-27 22:33 | 42.13455 | -72.35785 | 29889 ft | 377 kts | 296° |
| 2026-04-27 22:34 | 42.14409 | -72.39093 | 30310 ft | 381 kts | 296° |
| 2026-04-27 22:34 | 42.15372 | -72.42441 | 30631 ft | 386 kts | 296° |
| 2026-04-27 22:34 | 42.16347 | -72.45840 | 30920 ft | 390 kts | 296° |
| 2026-04-27 22:34 | 42.17328 | -72.49263 | 31210 ft | 394 kts | 296° |
| 2026-04-27 22:35 | 42.18319 | -72.52721 | 31520 ft | 396 kts | 296° |
| 2026-04-27 22:35 | 42.19298 | -72.56150 | 31818 ft | 398 kts | 295° |
| 2026-04-27 22:35 | 42.19971 | -72.58505 | 32027 ft | 399 kts | 296° |
| 2026-04-27 22:35 | 42.20971 | -72.62013 | 32328 ft | 401 kts | 295° |
| 2026-04-27 22:36 | 42.22297 | -72.66661 | 32767 ft | 402 kts | 295° |
| 2026-04-27 22:36 | 42.23297 | -72.70185 | 33078 ft | 402 kts | 295° |
| 2026-04-27 22:36 | 42.24297 | -72.73706 | 33387 ft | 402 kts | 295° |
| 2026-04-27 22:36 | 42.25297 | -72.77228 | 33713 ft | 402 kts | 295° |
| 2026-04-27 22:37 | 42.26292 | -72.80748 | 34043 ft | 401 kts | 295° |
| 2026-04-27 22:37 | 42.26965 | -72.83126 | 34260 ft | 401 kts | 295° |
| 2026-04-27 22:37 | 42.27946 | -72.86591 | 34529 ft | 400 kts | 295° |
| 2026-04-27 22:37 | 42.28934 | -72.90101 | 34807 ft | 399 kts | 295° |
| 2026-04-27 22:38 | 42.29922 | -72.93604 | 35087 ft | 399 kts | 295° |
| 2026-04-27 22:38 | 42.30906 | -72.97107 | 35327 ft | 399 kts | 295° |
| 2026-04-27 22:38 | 42.31890 | -73.00606 | 35553 ft | 399 kts | 295° |
| 2026-04-27 22:38 | 42.32875 | -73.04113 | 35793 ft | 399 kts | 294° |
| 2026-04-27 22:39 | 42.33855 | -73.07620 | 36042 ft | 399 kts | 294° |
| 2026-04-27 22:39 | 42.34840 | -73.11131 | 36290 ft | 399 kts | 294° |
| 2026-04-27 22:39 | 42.35819 | -73.14642 | 36532 ft | 399 kts | 294° |
| 2026-04-27 22:39 | 42.36798 | -73.18148 | 36876 ft | 396 kts | 294° |
| 2026-04-27 22:40 | 42.37762 | -73.21613 | 37399 ft | 390 kts | 294° |
| 2026-04-27 22:40 | 42.38718 | -73.25047 | 37649 ft | 391 kts | 294° |
| 2026-04-27 22:40 | 42.39680 | -73.28500 | 37773 ft | 395 kts | 294° |
| 2026-04-27 22:40 | 42.40650 | -73.31998 | 37880 ft | 399 kts | 294° |
| 2026-04-27 22:41 | 42.41626 | -73.35522 | 37915 ft | 404 kts | 293° |
| 2026-04-27 22:41 | 42.43617 | -73.42727 | 37948 ft | 413 kts | 293° |
| 2026-04-27 22:42 | 42.45643 | -73.50073 | 37951 ft | 420 kts | 293° |
| 2026-04-27 22:42 | 42.47654 | -73.57390 | 37951 ft | 424 kts | 293° |
| 2026-04-27 22:43 | 42.49686 | -73.64819 | 37945 ft | 414 kts | 293° |
| 2026-04-27 22:43 | 42.51652 | -73.72008 | 37935 ft | 401 kts | 294° |
| 2026-04-27 22:44 | 42.53584 | -73.79098 | 37936 ft | 401 kts | 294° |
| 2026-04-27 22:44 | 42.55512 | -73.86198 | 37935 ft | 402 kts | 293° |
| 2026-04-27 22:45 | 42.57430 | -73.93272 | 37937 ft | 402 kts | 293° |
| 2026-04-27 22:45 | 42.59352 | -74.00395 | 38062 ft | 400 kts | 293° |
| 2026-04-27 22:45 | 42.60303 | -74.03926 | 38190 ft | 397 kts | 293° |
| 2026-04-27 22:46 | 42.61250 | -74.07446 | 38285 ft | 396 kts | 293° |
| 2026-04-27 22:46 | 42.63150 | -74.14513 | 38283 ft | 402 kts | 293° |
| 2026-04-27 22:47 | 42.65073 | -74.21705 | 38294 ft | 408 kts | 293° |
| 2026-04-27 22:47 | 42.67023 | -74.29000 | 38301 ft | 413 kts | 293° |
| 2026-04-27 22:48 | 42.68983 | -74.36370 | 38303 ft | 417 kts | 292° |
| 2026-04-27 22:48 | 42.70952 | -74.43795 | 38308 ft | 417 kts | 292° |
| 2026-04-27 22:49 | 42.72871 | -74.51207 | 38303 ft | 414 kts | 292° |
| 2026-04-27 22:49 | 42.74694 | -74.58613 | 38299 ft | 411 kts | 291° |
| 2026-04-27 22:50 | 42.76519 | -74.65965 | 38296 ft | 409 kts | 291° |
| 2026-04-27 22:50 | 42.78324 | -74.73298 | 38289 ft | 408 kts | 291° |
| 2026-04-27 22:51 | 42.79651 | -74.80776 | 38142 ft | 403 kts | 278° |
| 2026-04-27 22:51 | 42.79649 | -74.84505 | 37773 ft | 387 kts | 272° |
| 2026-04-27 22:51 | 42.79426 | -74.88045 | 37369 ft | 373 kts | 269° |
| 2026-04-27 22:51 | 42.79113 | -74.91488 | 36950 ft | 360 kts | 268° |
| 2026-04-27 22:52 | 42.78761 | -74.94811 | 36433 ft | 351 kts | 268° |
| 2026-04-27 22:52 | 42.78392 | -74.98095 | 35664 ft | 350 kts | 268° |
| 2026-04-27 22:52 | 42.78003 | -75.01360 | 34928 ft | 349 kts | 268° |
| 2026-04-27 22:52 | 42.77594 | -75.04608 | 34209 ft | 347 kts | 268° |
| 2026-04-27 22:53 | 42.77166 | -75.07845 | 33332 ft | 346 kts | 268° |
| 2026-04-27 22:53 | 42.76735 | -75.11082 | 32293 ft | 349 kts | 268° |
| 2026-04-27 22:53 | 42.76299 | -75.14346 | 31283 ft | 351 kts | 268° |
| 2026-04-27 22:53 | 42.75863 | -75.17628 | 30352 ft | 354 kts | 268° |
| 2026-04-27 22:54 | 42.75427 | -75.20983 | 29476 ft | 368 kts | 267° |
| 2026-04-27 22:54 | 42.74988 | -75.24469 | 28696 ft | 379 kts | 267° |
| 2026-04-27 22:54 | 42.74553 | -75.28054 | 27914 ft | 389 kts | 267° |
| 2026-04-27 22:54 | 42.74125 | -75.31657 | 27144 ft | 382 kts | 267° |
| 2026-04-27 22:55 | 42.73704 | -75.35203 | 26397 ft | 378 kts | 268° |
| 2026-04-27 22:55 | 42.73291 | -75.38717 | 25658 ft | 376 kts | 268° |
| 2026-04-27 22:55 | 42.72812 | -75.42216 | 24935 ft | 379 kts | 262° |
| 2026-04-27 22:55 | 42.72077 | -75.45668 | 24156 ft | 382 kts | 259° |
| 2026-04-27 22:56 | 42.71262 | -75.49122 | 23274 ft | 385 kts | 258° |
| 2026-04-27 22:56 | 42.70427 | -75.52584 | 22333 ft | 386 kts | 258° |
| 2026-04-27 22:56 | 42.69590 | -75.56048 | 21433 ft | 386 kts | 257° |
| 2026-04-27 22:56 | 42.68764 | -75.59522 | 20555 ft | 385 kts | 257° |
| 2026-04-27 22:57 | 42.67953 | -75.62992 | 19710 ft | 385 kts | 257° |
| 2026-04-27 22:57 | 42.67153 | -75.66452 | 18884 ft | 383 kts | 257° |
| 2026-04-27 22:57 | 42.66368 | -75.69906 | 18003 ft | 382 kts | 257° |
| 2026-04-27 22:57 | 42.65597 | -75.73350 | 17132 ft | 378 kts | 258° |
| 2026-04-27 22:58 | 42.65206 | -75.76773 | 16362 ft | 367 kts | 272° |
| 2026-04-27 22:58 | 42.65202 | -75.80253 | 15604 ft | 361 kts | 275° |
| 2026-04-27 22:58 | 42.65306 | -75.83633 | 14873 ft | 354 kts | 277° |
| 2026-04-27 22:58 | 42.65435 | -75.86861 | 14161 ft | 331 kts | 278° |
| 2026-04-27 22:59 | 42.65565 | -75.89913 | 13381 ft | 320 kts | 278° |
| 2026-04-27 22:59 | 42.65697 | -75.92871 | 12599 ft | 307 kts | 278° |
| 2026-04-27 22:59 | 42.65824 | -75.95681 | 11843 ft | 297 kts | 277° |
| 2026-04-27 22:59 | 42.65962 | -75.98448 | 11099 ft | 290 kts | 277° |
| 2026-04-27 23:00 | 42.66257 | -76.03826 | 9593 ft | 281 kts | 277° |
| 2026-04-27 23:00 | 42.66421 | -76.06453 | 8804 ft | 278 kts | 277° |
| 2026-04-27 23:00 | 42.66605 | -76.09056 | 8036 ft | 276 kts | 277° |
| 2026-04-27 23:01 | 42.66804 | -76.11635 | 7282 ft | 274 kts | 277° |
| 2026-04-27 23:01 | 42.67027 | -76.14208 | 6559 ft | 276 kts | 278° |
| 2026-04-27 23:01 | 42.67274 | -76.16772 | 6279 ft | 265 kts | 278° |
| 2026-04-27 23:01 | 42.67510 | -76.19171 | 6214 ft | 249 kts | 278° |
| 2026-04-27 23:02 | 42.67735 | -76.21459 | 6074 ft | 240 kts | 278° |
| 2026-04-27 23:02 | 42.67950 | -76.23662 | 6013 ft | 229 kts | 278° |
| 2026-04-27 23:02 | 42.68565 | -76.25592 | 6006 ft | 231 kts | 317° |
| 2026-04-27 23:02 | 42.69971 | -76.26780 | 6016 ft | 248 kts | 335° |
| 2026-04-27 23:03 | 42.71566 | -76.27818 | 6042 ft | 259 kts | 337° |
| 2026-04-27 23:03 | 42.73234 | -76.28844 | 6089 ft | 266 kts | 339° |
| 2026-04-27 23:03 | 42.74961 | -76.29821 | 6212 ft | 268 kts | 339° |
| 2026-04-27 23:03 | 42.76679 | -76.30805 | 6256 ft | 268 kts | 339° |
| 2026-04-27 23:04 | 42.78417 | -76.31781 | 6187 ft | 272 kts | 339° |
| 2026-04-27 23:04 | 42.80159 | -76.32819 | 6117 ft | 275 kts | 338° |
| 2026-04-27 23:04 | 42.81877 | -76.33891 | 6113 ft | 275 kts | 337° |
| 2026-04-27 23:04 | 42.83636 | -76.34974 | 6035 ft | 278 kts | 338° |
| 2026-04-27 23:05 | 42.85397 | -76.36067 | 6012 ft | 278 kts | 337° |
| 2026-04-27 23:05 | 42.87140 | -76.37182 | 6026 ft | 276 kts | 337° |
| 2026-04-27 23:05 | 42.88902 | -76.38222 | 6028 ft | 275 kts | 339° |
| 2026-04-27 23:05 | 42.90665 | -76.39206 | 6111 ft | 272 kts | 340° |
| 2026-04-27 23:06 | 42.92408 | -76.40117 | 6259 ft | 266 kts | 342° |
| 2026-04-27 23:06 | 42.94140 | -76.40991 | 6181 ft | 261 kts | 342° |
| 2026-04-27 23:06 | 42.95813 | -76.41820 | 6178 ft | 248 kts | 342° |
| 2026-04-27 23:06 | 42.97376 | -76.42633 | 6236 ft | 234 kts | 341° |
| 2026-04-27 23:07 | 42.98875 | -76.43427 | 6205 ft | 228 kts | 341° |
| 2026-04-27 23:07 | 43.00334 | -76.44213 | 6174 ft | 223 kts | 340° |
| 2026-04-27 23:07 | 43.01754 | -76.45006 | 6198 ft | 221 kts | 340° |
| 2026-04-27 23:07 | 43.03188 | -76.45836 | 6185 ft | 224 kts | 340° |
| 2026-04-27 23:08 | 43.04633 | -76.46697 | 6074 ft | 231 kts | 338° |
| 2026-04-27 23:08 | 43.06121 | -76.47598 | 5988 ft | 235 kts | 339° |
| 2026-04-27 23:08 | 43.07662 | -76.48319 | 5984 ft | 232 kts | 356° |
| 2026-04-27 23:08 | 43.09204 | -76.47922 | 5938 ft | 229 kts | 27° |
| 2026-04-27 23:09 | 43.10481 | -76.46598 | 5674 ft | 236 kts | 51° |
| 2026-04-27 23:09 | 43.11352 | -76.44699 | 5554 ft | 236 kts | 64° |
| 2026-04-27 23:09 | 43.12083 | -76.42681 | 5456 ft | 237 kts | 67° |
| 2026-04-27 23:09 | 43.12388 | -76.40461 | 5109 ft | 237 kts | 90° |
| 2026-04-27 23:10 | 43.12251 | -76.38259 | 4648 ft | 227 kts | 97° |
| 2026-04-27 23:10 | 43.12046 | -76.36303 | 4511 ft | 193 kts | 95° |
| 2026-04-27 23:10 | 43.11847 | -76.34583 | 4262 ft | 176 kts | 102° |
| 2026-04-27 23:10 | 43.11565 | -76.32978 | 3934 ft | 169 kts | 103° |
| 2026-04-27 23:11 | 43.11266 | -76.31436 | 3635 ft | 165 kts | 105° |
| 2026-04-27 23:11 | 43.10963 | -76.29954 | 3428 ft | 158 kts | 106° |
| 2026-04-27 23:11 | 43.10703 | -76.28503 | 3141 ft | 158 kts | 101° |
| 2026-04-27 23:11 | 43.10525 | -76.27061 | 2989 ft | 150 kts | 95° |
| 2026-04-27 23:12 | 43.10466 | -76.25642 | 2668 ft | 145 kts | 90° |
| 2026-04-27 23:12 | 43.10444 | -76.24321 | 2387 ft | 138 kts | 89° |
| 2026-04-27 23:12 | 43.10450 | -76.23054 | 2136 ft | 131 kts | 87° |
| 2026-04-27 23:12 | 43.10464 | -76.21812 | 1849 ft | 129 kts | 85° |
| 2026-04-27 23:13 | 43.10519 | -76.20602 | 1572 ft | 126 kts | 82° |
| 2026-04-27 23:13 | 43.10590 | -76.19463 | 1405 ft | 118 kts | 83° |
| 2026-04-27 23:13 | 43.10628 | -76.18358 | 1257 ft | 115 kts | 86° |
| 2026-04-27 23:13 | 43.10646 | -76.17276 | 1103 ft | 113 kts | 86° |
| 2026-04-27 23:14 | 43.10678 | -76.16208 | 894 ft | 112 kts | 85° |
| 2026-04-27 23:14 | 43.10731 | -76.15167 | 732 ft | 107 kts | 86° |
| 2026-04-27 23:14 | 43.10770 | -76.14209 | 587 ft | 96 kts | 89° |
| 2026-04-27 23:14 | 43.10798 | -76.13321 | 460 ft | 90 kts | 88° |
| 2026-04-27 23:15 | 43.10825 | -76.12470 | 424 ft | 89 kts | 87° |
| 2026-04-27 23:15 | 43.10846 | -76.11937 | 414 ft | 27 kts | 86° |
| 2026-04-27 23:15 | 43.10933 | -76.11819 | 411 ft | 4 kts | 1° |
| 2026-04-27 23:15 | 43.10934 | -76.11819 | 411 ft | 0 kts | 1° |
| 2026-04-27 23:16 | 43.10954 | -76.11831 | 409 ft | 18 kts | 320° |
| 2026-04-27 23:16 | 43.10965 | -76.12003 | 414 ft | 18 kts | 267° |
| 2026-04-27 23:16 | 43.10959 | -76.12161 | 417 ft | 16 kts | 267° |
| 2026-04-27 23:17 | 43.10953 | -76.12330 | 418 ft | 20 kts | 267° |
| 2026-04-27 23:17 | 43.10947 | -76.12522 | 424 ft | 21 kts | 266° |
| 2026-04-27 23:17 | 43.10961 | -76.12712 | 421 ft | 19 kts | 316° |
| 2026-04-27 23:17 | 43.11043 | -76.12871 | 422 ft | 23 kts | 293° |
| 2026-04-27 23:18 | 43.11139 | -76.13045 | 416 ft | 24 kts | 3° |